Vista Alegre, Brazil
Current Conditions -  °F | °C
As of 8:00 AM on Sunday 21 Dec 2014 (Local Time) from SBCH Reporting Station
Scattered Clouds Scattered Clouds  
Wind Chill: 73°   Ceiling: Unl
Heat Index: 73°   Visibility: 6mi
Dew Point: 66°   Wind: 21mph
Humidity: 78%   Direction: 20°NNE
Pressure: 29.71"   Gusts: NA
Location:  27.37°S, 53.49°W
Report Text: SBCH 211000Z 02018KT 9999 SCT030 FEW040TCU SCT100 23/19 Q1006
Loading
Personal Weather Stations






























Interactive Weather Map New forecast layout! Learn more

10-Day Weather Forecast

Advertisements
Track Severe Weather on mobile